createdAt,value
2022-10-05T00:00:39.964Z,25.60
2022-10-05T00:11:06.859Z,18.60
2022-10-05T00:21:24.247Z,13.60
2022-10-05T00:31:33.199Z,20.80
2022-10-05T00:41:58.991Z,16.80
2022-10-05T00:52:20.472Z,12.70
2022-10-05T01:02:39.223Z,11.60
2022-10-05T01:12:56.246Z,10.10
2022-10-05T01:23:22.144Z,11.30
2022-10-05T01:33:34.498Z,9.90
2022-10-05T01:44:01.269Z,11.70
2022-10-05T01:54:07.915Z,10.50
2022-10-05T02:04:37.253Z,10.20
2022-10-05T02:14:47.856Z,8.00
2022-10-05T02:24:56.875Z,9.00
2022-10-05T02:35:10.066Z,10.20
2022-10-05T02:45:19.449Z,13.20
2022-10-05T02:55:39.304Z,10.40
2022-10-05T03:05:59.127Z,9.20
2022-10-05T03:16:38.921Z,8.90
2022-10-05T03:27:01.478Z,8.70
2022-10-05T03:37:22.158Z,6.10
2022-10-05T03:47:37.104Z,10.10
2022-10-05T03:57:43.010Z,8.60
2022-10-05T04:08:00.281Z,8.80
2022-10-05T04:18:11.925Z,9.10
2022-10-05T04:28:31.978Z,10.10
2022-10-05T04:38:39.547Z,11.00
2022-10-05T04:48:46.678Z,8.30
2022-10-05T04:59:23.172Z,8.30
2022-10-05T05:09:52.837Z,16.90
2022-10-05T05:20:37.045Z,13.10
2022-10-05T05:31:00.522Z,35.90
2022-10-05T05:41:13.632Z,11.70
2022-10-05T05:51:31.747Z,11.60
2022-10-05T06:01:45.760Z,8.10
2022-10-05T06:12:25.922Z,10.30
2022-10-05T06:22:46.611Z,9.20
2022-10-05T06:33:18.275Z,7.90
2022-10-05T06:43:41.894Z,9.20
2022-10-05T06:54:24.585Z,13.90
2022-10-05T07:04:55.584Z,16.70
2022-10-05T07:15:18.638Z,11.80
2022-10-05T07:25:31.926Z,10.00
2022-10-05T07:36:06.519Z,6.70
2022-10-05T07:46:38.217Z,6.90
2022-10-05T07:56:44.960Z,7.50
2022-10-05T08:06:58.962Z,6.60
2022-10-05T08:17:12.299Z,8.00
2022-10-05T08:27:34.305Z,5.50
2022-10-05T08:37:42.788Z,5.60
2022-10-05T08:48:01.802Z,4.20
2022-10-05T08:58:14.278Z,6.80
2022-10-05T09:08:59.493Z,3.70
2022-10-05T09:19:24.632Z,7.30
2022-10-05T09:29:34.302Z,4.50
2022-10-05T09:40:00.528Z,4.50
2022-10-05T09:50:30.279Z,5.60
2022-10-05T10:01:09.425Z,4.60
2022-10-05T10:11:43.339Z,5.00
2022-10-05T10:22:24.758Z,4.70
2022-10-05T10:32:51.903Z,4.20
2022-10-05T10:43:07.521Z,5.40
2022-10-05T10:53:48.608Z,4.90
2022-10-05T11:04:14.018Z,5.00
2022-10-05T11:14:36.069Z,3.80
2022-10-05T11:25:05.014Z,5.70
2022-10-05T11:35:20.368Z,5.20
2022-10-05T11:45:33.224Z,4.40
2022-10-05T11:56:02.028Z,6.30
2022-10-05T12:06:39.033Z,3.80
2022-10-05T12:17:04.639Z,5.70
2022-10-05T12:27:20.941Z,3.50
2022-10-05T12:37:39.802Z,3.60
2022-10-05T12:48:22.029Z,4.10
2022-10-05T12:59:10.755Z,4.60
2022-10-05T13:09:27.047Z,2.90
2022-10-05T13:19:39.773Z,3.20
2022-10-05T13:29:56.825Z,3.90
2022-10-05T13:40:00.558Z,4.70
2022-10-05T13:50:17.554Z,2.50
2022-10-05T14:00:26.324Z,4.90
2022-10-05T14:10:39.080Z,3.50
2022-10-05T14:21:01.601Z,3.90
2022-10-05T14:31:29.910Z,3.70
2022-10-05T14:41:42.597Z,3.50
2022-10-05T14:51:46.469Z,6.80
2022-10-05T15:01:59.373Z,5.50
2022-10-05T15:12:04.240Z,4.20
2022-10-05T15:22:34.825Z,4.00
2022-10-05T15:32:55.988Z,3.80
2022-10-05T15:43:23.723Z,7.00
2022-10-05T15:53:52.741Z,5.20
2022-10-05T16:04:26.568Z,5.10
2022-10-05T16:14:54.007Z,3.70
2022-10-05T16:25:09.448Z,6.60
2022-10-05T16:35:44.831Z,4.60
2022-10-05T16:46:13.597Z,6.70
2022-10-05T16:56:22.545Z,4.20
2022-10-05T17:06:41.058Z,5.70
2022-10-05T17:17:21.351Z,4.50
2022-10-05T17:27:51.036Z,5.00
2022-10-05T17:38:38.663Z,5.00
2022-10-05T17:48:55.193Z,8.60
2022-10-05T17:59:00.534Z,8.10
2022-10-05T18:09:21.304Z,10.60
2022-10-05T18:19:27.238Z,9.90
2022-10-05T18:29:59.233Z,8.10
2022-10-05T18:40:35.121Z,7.20
2022-10-05T18:51:03.880Z,8.60
2022-10-05T19:01:36.945Z,7.10
2022-10-05T19:12:21.504Z,7.80
2022-10-05T19:23:19.612Z,5.20
2022-10-05T19:33:23.531Z,9.20
2022-10-05T19:43:56.724Z,8.10
2022-10-05T19:54:21.987Z,9.90
2022-10-05T20:04:34.460Z,7.70
2022-10-05T20:14:59.402Z,10.20
2022-10-05T20:25:29.475Z,17.10
2022-10-05T20:35:33.542Z,16.20
2022-10-05T20:45:43.757Z,16.20
2022-10-05T20:55:48.357Z,14.30
2022-10-05T21:05:52.518Z,12.90
2022-10-05T21:15:57.065Z,15.30
2022-10-05T21:26:02.032Z,12.50
2022-10-05T21:36:05.986Z,11.60
2022-10-05T21:46:12.101Z,9.70
2022-10-05T21:56:21.658Z,12.60
2022-10-05T22:06:25.571Z,22.80
2022-10-05T22:16:33.253Z,11.30
2022-10-05T22:26:37.506Z,14.90
2022-10-05T22:36:43.023Z,13.10
2022-10-05T22:46:48.223Z,12.30
2022-10-05T22:56:52.198Z,10.90
2022-10-05T23:06:56.087Z,13.00
2022-10-05T23:16:59.880Z,14.40
2022-10-05T23:27:03.699Z,15.60
2022-10-05T23:37:07.470Z,12.90
2022-10-05T23:47:11.034Z,14.70
2022-10-05T23:57:19.509Z,9.60
